sensor_id;sensor_type;location;lat;lon;timestamp;P1;durP1;ratioP1;P2;durP2;ratioP2
48847;SDS011;36611;51.638;5.784;2022-12-31T00:00:05;2.30;;;2.10;;
48847;SDS011;36611;51.638;5.784;2022-12-31T00:02:33;2.65;;;2.03;;
48847;SDS011;36611;51.638;5.784;2022-12-31T00:05:00;2.40;;;1.73;;
48847;SDS011;36611;51.638;5.784;2022-12-31T00:07:27;2.10;;;1.80;;
48847;SDS011;36611;51.638;5.784;2022-12-31T00:09:54;4.60;;;2.00;;
48847;SDS011;36611;51.638;5.784;2022-12-31T00:12:20;2.88;;;1.80;;
48847;SDS011;36611;51.638;5.784;2022-12-31T00:14:47;4.70;;;2.08;;
48847;SDS011;36611;51.638;5.784;2022-12-31T00:17:13;2.80;;;2.00;;
48847;SDS011;36611;51.638;5.784;2022-12-31T00:19:42;3.33;;;1.98;;
48847;SDS011;36611;51.638;5.784;2022-12-31T00:22:08;3.42;;;1.70;;
48847;SDS011;36611;51.638;5.784;2022-12-31T00:24:35;2.13;;;1.55;;
48847;SDS011;36611;51.638;5.784;2022-12-31T00:27:02;2.92;;;1.80;;
48847;SDS011;36611;51.638;5.784;2022-12-31T00:29:28;6.20;;;1.85;;
48847;SDS011;36611;51.638;5.784;2022-12-31T00:31:55;2.58;;;1.50;;
48847;SDS011;36611;51.638;5.784;2022-12-31T00:34:21;1.88;;;1.30;;
48847;SDS011;36611;51.638;5.784;2022-12-31T00:36:48;2.25;;;1.60;;
48847;SDS011;36611;51.638;5.784;2022-12-31T00:39:15;2.78;;;1.65;;
48847;SDS011;36611;51.638;5.784;2022-12-31T00:41:41;2.50;;;1.80;;
48847;SDS011;36611;51.638;5.784;2022-12-31T00:44:12;1.60;;;1.50;;
48847;SDS011;36611;51.638;5.784;2022-12-31T00:46:41;2.90;;;1.70;;
48847;SDS011;36611;51.638;5.784;2022-12-31T00:49:07;3.60;;;1.80;;
48847;SDS011;36611;51.638;5.784;2022-12-31T00:51:34;2.72;;;1.73;;
48847;SDS011;36611;51.638;5.784;2022-12-31T00:54:01;2.47;;;1.90;;
48847;SDS011;36611;51.638;5.784;2022-12-31T00:56:28;2.38;;;2.03;;
48847;SDS011;36611;51.638;5.784;2022-12-31T00:58:56;3.45;;;2.42;;
48847;SDS011;36611;51.638;5.784;2022-12-31T01:01:27;2.53;;;1.90;;
48847;SDS011;36611;51.638;5.784;2022-12-31T01:04:01;3.75;;;2.22;;
48847;SDS011;36611;51.638;5.784;2022-12-31T01:06:30;2.20;;;2.00;;
48847;SDS011;36611;51.638;5.784;2022-12-31T01:08:57;3.35;;;2.10;;
48847;SDS011;36611;51.638;5.784;2022-12-31T01:11:24;2.75;;;1.80;;
48847;SDS011;36611;51.638;5.784;2022-12-31T01:13:58;2.05;;;1.73;;
48847;SDS011;36611;51.638;5.784;2022-12-31T01:16:31;3.88;;;1.50;;
48847;SDS011;36611;51.638;5.784;2022-12-31T01:19:01;1.38;;;0.90;;
48847;SDS011;36611;51.638;5.784;2022-12-31T01:21:30;1.58;;;1.00;;
48847;SDS011;36611;51.638;5.784;2022-12-31T01:23:58;1.05;;;0.77;;
48847;SDS011;36611;51.638;5.784;2022-12-31T01:26:25;3.17;;;0.88;;
48847;SDS011;36611;51.638;5.784;2022-12-31T01:28:56;1.13;;;0.70;;
48847;SDS011;36611;51.638;5.784;2022-12-31T01:31:22;6.00;;;0.70;;
48847;SDS011;36611;51.638;5.784;2022-12-31T01:33:50;1.80;;;0.60;;
48847;SDS011;36611;51.638;5.784;2022-12-31T01:36:20;1.60;;;0.40;;
48847;SDS011;36611;51.638;5.784;2022-12-31T01:38:52;0.93;;;0.50;;
48847;SDS011;36611;51.638;5.784;2022-12-31T01:41:25;1.25;;;0.60;;
48847;SDS011;36611;51.638;5.784;2022-12-31T01:49:19;1.75;;;0.40;;
48847;SDS011;36611;51.638;5.784;2022-12-31T01:52:10;1.20;;;0.75;;
48847;SDS011;36611;51.638;5.784;2022-12-31T01:54:45;1.23;;;0.50;;
48847;SDS011;36611;51.638;5.784;2022-12-31T01:57:16;0.60;;;0.50;;
48847;SDS011;36611;51.638;5.784;2022-12-31T01:59:42;0.52;;;0.47;;
48847;SDS011;36611;51.638;5.784;2022-12-31T02:02:11;0.60;;;0.50;;
48847;SDS011;36611;51.638;5.784;2022-12-31T02:04:39;0.70;;;0.40;;
48847;SDS011;36611;51.638;5.784;2022-12-31T02:07:07;0.73;;;0.30;;
48847;SDS011;36611;51.638;5.784;2022-12-31T02:09:35;1.00;;;0.40;;
48847;SDS011;36611;51.638;5.784;2022-12-31T02:12:04;1.63;;;0.47;;
48847;SDS011;36611;51.638;5.784;2022-12-31T02:14:32;1.27;;;0.50;;
48847;SDS011;36611;51.638;5.784;2022-12-31T02:22:28;0.90;;;0.60;;
48847;SDS011;36611;51.638;5.784;2022-12-31T02:30:35;0.50;;;0.45;;
48847;SDS011;36611;51.638;5.784;2022-12-31T02:33:08;1.13;;;0.60;;
48847;SDS011;36611;51.638;5.784;2022-12-31T02:35:47;1.88;;;0.80;;
48847;SDS011;36611;51.638;5.784;2022-12-31T02:38:21;0.85;;;0.65;;
48847;SDS011;36611;51.638;5.784;2022-12-31T02:40:54;2.58;;;1.00;;
48847;SDS011;36611;51.638;5.784;2022-12-31T02:43:22;1.00;;;0.75;;
48847;SDS011;36611;51.638;5.784;2022-12-31T02:45:51;1.13;;;0.60;;
48847;SDS011;36611;51.638;5.784;2022-12-31T02:48:33;1.10;;;0.80;;
48847;SDS011;36611;51.638;5.784;2022-12-31T02:57:14;3.53;;;1.10;;
48847;SDS011;36611;51.638;5.784;2022-12-31T03:02:44;2.25;;;1.10;;
48847;SDS011;36611;51.638;5.784;2022-12-31T03:05:13;1.38;;;1.17;;
48847;SDS011;36611;51.638;5.784;2022-12-31T03:07:44;1.33;;;1.20;;
48847;SDS011;36611;51.638;5.784;2022-12-31T03:10:11;1.85;;;1.20;;
48847;SDS011;36611;51.638;5.784;2022-12-31T03:12:38;1.67;;;1.30;;
48847;SDS011;36611;51.638;5.784;2022-12-31T03:17:50;1.80;;;1.17;;
48847;SDS011;36611;51.638;5.784;2022-12-31T03:20:18;1.52;;;1.10;;
48847;SDS011;36611;51.638;5.784;2022-12-31T03:23:05;0.90;;;0.90;;
48847;SDS011;36611;51.638;5.784;2022-12-31T03:25:32;1.48;;;1.10;;
48847;SDS011;36611;51.638;5.784;2022-12-31T03:28:00;1.10;;;0.90;;
48847;SDS011;36611;51.638;5.784;2022-12-31T03:30:29;1.30;;;1.20;;
48847;SDS011;36611;51.638;5.784;2022-12-31T03:32:57;1.75;;;1.38;;
48847;SDS011;36611;51.638;5.784;2022-12-31T03:35:25;1.92;;;1.48;;
48847;SDS011;36611;51.638;5.784;2022-12-31T03:37:54;1.48;;;1.30;;
48847;SDS011;36611;51.638;5.784;2022-12-31T03:40:23;1.33;;;1.23;;
48847;SDS011;36611;51.638;5.784;2022-12-31T03:42:51;1.52;;;1.40;;
48847;SDS011;36611;51.638;5.784;2022-12-31T03:45:18;3.08;;;1.50;;
48847;SDS011;36611;51.638;5.784;2022-12-31T03:47:45;1.70;;;1.60;;
48847;SDS011;36611;51.638;5.784;2022-12-31T03:50:13;2.67;;;1.67;;
48847;SDS011;36611;51.638;5.784;2022-12-31T03:52:41;2.67;;;1.50;;
48847;SDS011;36611;51.638;5.784;2022-12-31T03:55:08;2.20;;;1.60;;
48847;SDS011;36611;51.638;5.784;2022-12-31T03:57:36;1.45;;;1.30;;
48847;SDS011;36611;51.638;5.784;2022-12-31T04:00:04;1.20;;;1.10;;
48847;SDS011;36611;51.638;5.784;2022-12-31T04:02:32;1.35;;;1.10;;
48847;SDS011;36611;51.638;5.784;2022-12-31T04:04:59;1.20;;;1.10;;
48847;SDS011;36611;51.638;5.784;2022-12-31T04:07:26;0.85;;;0.80;;
48847;SDS011;36611;51.638;5.784;2022-12-31T04:09:52;1.00;;;0.80;;
48847;SDS011;36611;51.638;5.784;2022-12-31T04:12:19;2.25;;;0.90;;
48847;SDS011;36611;51.638;5.784;2022-12-31T04:14:45;1.10;;;1.00;;
48847;SDS011;36611;51.638;5.784;2022-12-31T04:17:12;0.93;;;0.93;;
48847;SDS011;36611;51.638;5.784;2022-12-31T04:19:39;1.20;;;0.90;;
48847;SDS011;36611;51.638;5.784;2022-12-31T04:22:06;0.80;;;0.80;;
48847;SDS011;36611;51.638;5.784;2022-12-31T04:24:33;1.77;;;1.00;;
48847;SDS011;36611;51.638;5.784;2022-12-31T04:26:59;1.00;;;0.88;;
48847;SDS011;36611;51.638;5.784;2022-12-31T04:29:33;0.88;;;0.88;;
48847;SDS011;36611;51.638;5.784;2022-12-31T04:31:59;1.10;;;0.98;;
48847;SDS011;36611;51.638;5.784;2022-12-31T04:34:26;1.90;;;0.90;;
48847;SDS011;36611;51.638;5.784;2022-12-31T04:36:53;1.70;;;1.10;;
48847;SDS011;36611;51.638;5.784;2022-12-31T04:39:19;1.42;;;1.20;;
48847;SDS011;36611;51.638;5.784;2022-12-31T04:41:48;1.30;;;1.00;;
48847;SDS011;36611;51.638;5.784;2022-12-31T04:44:14;1.33;;;1.17;;
48847;SDS011;36611;51.638;5.784;2022-12-31T04:46:41;1.73;;;1.40;;
48847;SDS011;36611;51.638;5.784;2022-12-31T04:49:08;1.73;;;1.63;;
48847;SDS011;36611;51.638;5.784;2022-12-31T04:51:35;3.13;;;2.25;;
48847;SDS011;36611;51.638;5.784;2022-12-31T04:54:02;2.30;;;2.03;;
48847;SDS011;36611;51.638;5.784;2022-12-31T04:56:29;2.40;;;2.13;;
48847;SDS011;36611;51.638;5.784;2022-12-31T04:58:57;2.90;;;2.40;;
48847;SDS011;36611;51.638;5.784;2022-12-31T05:01:24;2.22;;;2.03;;
48847;SDS011;36611;51.638;5.784;2022-12-31T05:03:50;1.90;;;1.70;;
48847;SDS011;36611;51.638;5.784;2022-12-31T05:06:18;2.90;;;2.05;;
48847;SDS011;36611;51.638;5.784;2022-12-31T05:08:47;2.15;;;1.80;;
48847;SDS011;36611;51.638;5.784;2022-12-31T05:11:15;2.13;;;1.80;;
48847;SDS011;36611;51.638;5.784;2022-12-31T05:13:42;4.22;;;2.20;;
48847;SDS011;36611;51.638;5.784;2022-12-31T05:16:08;3.70;;;2.25;;
48847;SDS011;36611;51.638;5.784;2022-12-31T05:18:35;6.03;;;2.00;;
48847;SDS011;36611;51.638;5.784;2022-12-31T05:21:02;4.03;;;1.98;;
48847;SDS011;36611;51.638;5.784;2022-12-31T05:23:29;4.88;;;1.85;;
48847;SDS011;36611;51.638;5.784;2022-12-31T05:25:57;2.38;;;1.38;;
48847;SDS011;36611;51.638;5.784;2022-12-31T05:28:24;2.67;;;1.50;;
48847;SDS011;36611;51.638;5.784;2022-12-31T05:30:51;6.18;;;1.50;;
48847;SDS011;36611;51.638;5.784;2022-12-31T05:33:18;4.30;;;1.13;;
48847;SDS011;36611;51.638;5.784;2022-12-31T05:35:45;4.07;;;1.17;;
48847;SDS011;36611;51.638;5.784;2022-12-31T05:38:12;4.90;;;1.00;;
48847;SDS011;36611;51.638;5.784;2022-12-31T05:40:39;2.85;;;0.98;;
48847;SDS011;36611;51.638;5.784;2022-12-31T05:43:05;3.95;;;1.15;;
48847;SDS011;36611;51.638;5.784;2022-12-31T05:45:32;3.67;;;1.30;;
48847;SDS011;36611;51.638;5.784;2022-12-31T05:47:59;3.78;;;1.00;;
48847;SDS011;36611;51.638;5.784;2022-12-31T05:50:26;1.65;;;0.80;;
48847;SDS011;36611;51.638;5.784;2022-12-31T05:52:54;3.38;;;1.00;;
48847;SDS011;36611;51.638;5.784;2022-12-31T05:55:21;3.10;;;1.00;;
48847;SDS011;36611;51.638;5.784;2022-12-31T05:57:47;4.28;;;0.85;;
48847;SDS011;36611;51.638;5.784;2022-12-31T06:00:14;1.85;;;0.70;;
48847;SDS011;36611;51.638;5.784;2022-12-31T06:02:41;2.78;;;0.75;;
48847;SDS011;36611;51.638;5.784;2022-12-31T06:05:08;4.72;;;0.70;;
48847;SDS011;36611;51.638;5.784;2022-12-31T06:07:35;2.80;;;0.95;;
48847;SDS011;36611;51.638;5.784;2022-12-31T06:10:02;3.97;;;1.00;;
48847;SDS011;36611;51.638;5.784;2022-12-31T06:12:29;3.28;;;0.90;;
48847;SDS011;36611;51.638;5.784;2022-12-31T06:14:56;6.30;;;0.98;;
48847;SDS011;36611;51.638;5.784;2022-12-31T06:17:22;2.42;;;0.77;;
48847;SDS011;36611;51.638;5.784;2022-12-31T06:19:49;2.75;;;0.82;;
48847;SDS011;36611;51.638;5.784;2022-12-31T06:22:16;2.55;;;0.70;;
48847;SDS011;36611;51.638;5.784;2022-12-31T06:24:43;1.85;;;0.70;;
48847;SDS011;36611;51.638;5.784;2022-12-31T06:27:09;1.25;;;0.70;;
48847;SDS011;36611;51.638;5.784;2022-12-31T06:29:36;2.30;;;0.70;;
48847;SDS011;36611;51.638;5.784;2022-12-31T06:32:02;1.92;;;0.63;;
48847;SDS011;36611;51.638;5.784;2022-12-31T06:34:29;2.80;;;0.80;;
48847;SDS011;36611;51.638;5.784;2022-12-31T06:36:56;3.80;;;0.82;;
48847;SDS011;36611;51.638;5.784;2022-12-31T06:39:24;3.60;;;1.67;;
48847;SDS011;36611;51.638;5.784;2022-12-31T06:41:51;1.70;;;1.20;;
48847;SDS011;36611;51.638;5.784;2022-12-31T06:44:17;3.15;;;1.15;;
48847;SDS011;36611;51.638;5.784;2022-12-31T06:46:44;1.92;;;0.90;;
48847;SDS011;36611;51.638;5.784;2022-12-31T06:49:11;2.85;;;1.02;;
48847;SDS011;36611;51.638;5.784;2022-12-31T06:51:37;2.50;;;0.60;;
48847;SDS011;36611;51.638;5.784;2022-12-31T06:54:04;4.05;;;0.80;;
48847;SDS011;36611;51.638;5.784;2022-12-31T06:56:31;0.88;;;0.40;;
48847;SDS011;36611;51.638;5.784;2022-12-31T06:59:00;2.83;;;0.60;;
48847;SDS011;36611;51.638;5.784;2022-12-31T07:07:12;1.67;;;0.60;;
48847;SDS011;36611;51.638;5.784;2022-12-31T07:10:19;1.50;;;0.57;;
48847;SDS011;36611;51.638;5.784;2022-12-31T07:20:45;2.22;;;0.60;;
48847;SDS011;36611;51.638;5.784;2022-12-31T07:23:12;2.90;;;0.60;;
48847;SDS011;36611;51.638;5.784;2022-12-31T07:25:40;1.42;;;0.70;;
48847;SDS011;36611;51.638;5.784;2022-12-31T07:28:28;3.53;;;0.80;;
48847;SDS011;36611;51.638;5.784;2022-12-31T07:31:12;2.33;;;0.80;;
48847;SDS011;36611;51.638;5.784;2022-12-31T07:34:00;3.70;;;0.70;;
48847;SDS011;36611;51.638;5.784;2022-12-31T07:36:56;2.83;;;1.05;;
48847;SDS011;36611;51.638;5.784;2022-12-31T07:39:38;3.22;;;0.90;;
48847;SDS011;36611;51.638;5.784;2022-12-31T07:42:58;1.80;;;0.75;;
48847;SDS011;36611;51.638;5.784;2022-12-31T07:45:18;2.95;;;0.95;;
48847;SDS011;36611;51.638;5.784;2022-12-31T07:47:49;5.05;;;1.10;;
48847;SDS011;36611;51.638;5.784;2022-12-31T07:50:16;5.97;;;0.80;;
48847;SDS011;36611;51.638;5.784;2022-12-31T07:52:44;2.90;;;0.95;;
48847;SDS011;36611;51.638;5.784;2022-12-31T07:55:11;2.67;;;0.80;;
48847;SDS011;36611;51.638;5.784;2022-12-31T07:57:52;3.55;;;0.90;;
48847;SDS011;36611;51.638;5.784;2022-12-31T08:00:25;4.63;;;1.00;;
48847;SDS011;36611;51.638;5.784;2022-12-31T08:05:54;6.40;;;1.05;;
48847;SDS011;36611;51.638;5.784;2022-12-31T08:14:10;3.88;;;1.08;;
48847;SDS011;36611;51.638;5.784;2022-12-31T08:16:38;4.30;;;0.80;;
48847;SDS011;36611;51.638;5.784;2022-12-31T08:19:05;2.78;;;0.80;;
48847;SDS011;36611;51.638;5.784;2022-12-31T08:21:42;3.47;;;0.95;;
48847;SDS011;36611;51.638;5.784;2022-12-31T08:27:11;2.28;;;0.88;;
48847;SDS011;36611;51.638;5.784;2022-12-31T08:38:00;4.20;;;1.10;;
48847;SDS011;36611;51.638;5.784;2022-12-31T08:40:58;2.45;;;1.00;;
48847;SDS011;36611;51.638;5.784;2022-12-31T08:46:18;4.05;;;0.90;;
48847;SDS011;36611;51.638;5.784;2022-12-31T08:48:49;3.22;;;0.77;;
48847;SDS011;36611;51.638;5.784;2022-12-31T08:51:18;2.08;;;0.90;;
48847;SDS011;36611;51.638;5.784;2022-12-31T08:53:49;2.40;;;0.77;;
48847;SDS011;36611;51.638;5.784;2022-12-31T08:56:26;3.03;;;0.52;;
48847;SDS011;36611;51.638;5.784;2022-12-31T08:59:03;2.05;;;0.60;;
48847;SDS011;36611;51.638;5.784;2022-12-31T09:01:38;2.25;;;1.02;;
48847;SDS011;36611;51.638;5.784;2022-12-31T09:04:29;3.03;;;0.73;;
48847;SDS011;36611;51.638;5.784;2022-12-31T09:07:12;2.38;;;0.80;;
48847;SDS011;36611;51.638;5.784;2022-12-31T09:10:02;3.15;;;1.00;;
48847;SDS011;36611;51.638;5.784;2022-12-31T09:15:30;4.03;;;0.93;;
48847;SDS011;36611;51.638;5.784;2022-12-31T09:18:02;3.08;;;0.70;;
48847;SDS011;36611;51.638;5.784;2022-12-31T09:20:30;2.40;;;0.77;;
48847;SDS011;36611;51.638;5.784;2022-12-31T09:23:09;3.35;;;0.90;;
48847;SDS011;36611;51.638;5.784;2022-12-31T09:25:45;3.53;;;0.77;;
48847;SDS011;36611;51.638;5.784;2022-12-31T09:28:44;1.92;;;0.60;;
48847;SDS011;36611;51.638;5.784;2022-12-31T09:37:28;3.78;;;1.00;;
48847;SDS011;36611;51.638;5.784;2022-12-31T09:39:59;3.95;;;1.10;;
48847;SDS011;36611;51.638;5.784;2022-12-31T09:46:13;3.47;;;0.93;;
48847;SDS011;36611;51.638;5.784;2022-12-31T10:00:12;3.53;;;1.10;;
48847;SDS011;36611;51.638;5.784;2022-12-31T10:03:00;4.88;;;1.10;;
48847;SDS011;36611;51.638;5.784;2022-12-31T10:17:26;3.88;;;1.05;;
48847;SDS011;36611;51.638;5.784;2022-12-31T10:20:03;6.18;;;1.33;;
48847;SDS011;36611;51.638;5.784;2022-12-31T10:22:37;4.95;;;1.20;;
48847;SDS011;36611;51.638;5.784;2022-12-31T10:30:35;4.65;;;1.50;;
48847;SDS011;36611;51.638;5.784;2022-12-31T10:36:07;4.38;;;1.25;;
48847;SDS011;36611;51.638;5.784;2022-12-31T11:01:47;4.30;;;1.42;;
48847;SDS011;36611;51.638;5.784;2022-12-31T11:18:56;5.10;;;1.25;;
48847;SDS011;36611;51.638;5.784;2022-12-31T11:24:17;5.38;;;2.13;;
48847;SDS011;36611;51.638;5.784;2022-12-31T11:26:59;4.15;;;1.17;;
48847;SDS011;36611;51.638;5.784;2022-12-31T11:32:41;3.40;;;1.25;;
48847;SDS011;36611;51.638;5.784;2022-12-31T11:35:14;5.03;;;1.23;;
48847;SDS011;36611;51.638;5.784;2022-12-31T11:40:43;4.57;;;1.40;;
48847;SDS011;36611;51.638;5.784;2022-12-31T11:49:04;4.57;;;1.23;;
48847;SDS011;36611;51.638;5.784;2022-12-31T11:57:10;3.92;;;1.38;;
48847;SDS011;36611;51.638;5.784;2022-12-31T11:59:39;5.82;;;1.20;;
48847;SDS011;36611;51.638;5.784;2022-12-31T12:02:16;3.47;;;1.52;;
48847;SDS011;36611;51.638;5.784;2022-12-31T12:04:51;4.18;;;1.60;;
48847;SDS011;36611;51.638;5.784;2022-12-31T12:07:20;8.70;;;2.00;;
48847;SDS011;36611;51.638;5.784;2022-12-31T12:09:50;5.53;;;1.98;;
48847;SDS011;36611;51.638;5.784;2022-12-31T12:12:20;5.60;;;1.75;;
48847;SDS011;36611;51.638;5.784;2022-12-31T12:14:53;5.38;;;1.73;;
48847;SDS011;36611;51.638;5.784;2022-12-31T12:17:27;2.90;;;1.48;;
48847;SDS011;36611;51.638;5.784;2022-12-31T12:20:01;6.07;;;1.55;;
48847;SDS011;36611;51.638;5.784;2022-12-31T12:22:30;5.43;;;1.52;;
48847;SDS011;36611;51.638;5.784;2022-12-31T12:25:01;6.45;;;1.70;;
48847;SDS011;36611;51.638;5.784;2022-12-31T12:27:32;6.45;;;2.65;;
48847;SDS011;36611;51.638;5.784;2022-12-31T12:32:53;5.47;;;1.48;;
48847;SDS011;36611;51.638;5.784;2022-12-31T12:35:22;4.95;;;1.60;;
48847;SDS011;36611;51.638;5.784;2022-12-31T12:38:19;5.25;;;1.90;;
48847;SDS011;36611;51.638;5.784;2022-12-31T12:40:52;7.20;;;2.05;;
48847;SDS011;36611;51.638;5.784;2022-12-31T12:43:26;5.78;;;1.60;;
48847;SDS011;36611;51.638;5.784;2022-12-31T12:45:59;5.80;;;1.55;;
48847;SDS011;36611;51.638;5.784;2022-12-31T12:48:47;4.47;;;1.13;;
48847;SDS011;36611;51.638;5.784;2022-12-31T12:51:26;4.93;;;1.42;;
48847;SDS011;36611;51.638;5.784;2022-12-31T12:57:26;4.93;;;1.58;;
48847;SDS011;36611;51.638;5.784;2022-12-31T13:17:06;5.65;;;2.40;;
48847;SDS011;36611;51.638;5.784;2022-12-31T13:19:58;4.45;;;1.60;;
48847;SDS011;36611;51.638;5.784;2022-12-31T13:22:45;3.78;;;1.60;;
48847;SDS011;36611;51.638;5.784;2022-12-31T13:25:22;4.10;;;1.60;;
48847;SDS011;36611;51.638;5.784;2022-12-31T13:28:10;5.50;;;1.67;;
48847;SDS011;36611;51.638;5.784;2022-12-31T13:30:42;4.93;;;1.90;;
48847;SDS011;36611;51.638;5.784;2022-12-31T13:33:14;4.25;;;2.30;;
48847;SDS011;36611;51.638;5.784;2022-12-31T13:35:45;5.90;;;1.40;;
48847;SDS011;36611;51.638;5.784;2022-12-31T13:41:20;2.78;;;1.50;;
48847;SDS011;36611;51.638;5.784;2022-12-31T13:48:56;7.55;;;2.28;;
48847;SDS011;36611;51.638;5.784;2022-12-31T13:56:41;5.53;;;2.28;;
48847;SDS011;36611;51.638;5.784;2022-12-31T13:59:18;4.13;;;1.70;;
48847;SDS011;36611;51.638;5.784;2022-12-31T14:02:00;6.53;;;2.45;;
48847;SDS011;36611;51.638;5.784;2022-12-31T14:04:41;6.32;;;2.60;;
48847;SDS011;36611;51.638;5.784;2022-12-31T14:07:15;7.13;;;2.95;;
48847;SDS011;36611;51.638;5.784;2022-12-31T14:09:48;6.25;;;2.70;;
48847;SDS011;36611;51.638;5.784;2022-12-31T14:12:20;7.13;;;3.15;;
48847;SDS011;36611;51.638;5.784;2022-12-31T14:18:00;11.02;;;2.42;;
48847;SDS011;36611;51.638;5.784;2022-12-31T14:20:44;9.40;;;2.63;;
48847;SDS011;36611;51.638;5.784;2022-12-31T14:23:35;4.00;;;2.00;;
48847;SDS011;36611;51.638;5.784;2022-12-31T14:26:18;7.47;;;2.42;;
48847;SDS011;36611;51.638;5.784;2022-12-31T14:29:11;9.23;;;3.30;;
48847;SDS011;36611;51.638;5.784;2022-12-31T14:34:51;6.93;;;2.72;;
48847;SDS011;36611;51.638;5.784;2022-12-31T14:37:13;6.35;;;2.30;;
48847;SDS011;36611;51.638;5.784;2022-12-31T14:51:07;5.93;;;2.40;;
48847;SDS011;36611;51.638;5.784;2022-12-31T14:53:35;8.45;;;2.50;;
48847;SDS011;36611;51.638;5.784;2022-12-31T14:56:02;7.95;;;2.55;;
48847;SDS011;36611;51.638;5.784;2022-12-31T14:58:30;7.95;;;2.65;;
48847;SDS011;36611;51.638;5.784;2022-12-31T15:03:44;7.60;;;2.30;;
48847;SDS011;36611;51.638;5.784;2022-12-31T15:28:07;6.47;;;1.83;;
48847;SDS011;36611;51.638;5.784;2022-12-31T15:30:57;5.55;;;2.45;;
48847;SDS011;36611;51.638;5.784;2022-12-31T15:33:33;6.60;;;2.53;;
48847;SDS011;36611;51.638;5.784;2022-12-31T15:36:17;7.93;;;2.10;;
48847;SDS011;36611;51.638;5.784;2022-12-31T15:38:48;7.78;;;2.22;;
48847;SDS011;36611;51.638;5.784;2022-12-31T16:02:50;7.80;;;2.17;;
48847;SDS011;36611;51.638;5.784;2022-12-31T16:05:24;6.35;;;2.55;;
48847;SDS011;36611;51.638;5.784;2022-12-31T16:07:56;8.13;;;2.20;;
48847;SDS011;36611;51.638;5.784;2022-12-31T16:10:26;7.22;;;2.28;;
48847;SDS011;36611;51.638;5.784;2022-12-31T16:12:55;6.85;;;2.53;;
48847;SDS011;36611;51.638;5.784;2022-12-31T16:15:25;6.55;;;2.30;;
48847;SDS011;36611;51.638;5.784;2022-12-31T16:18:04;5.65;;;2.78;;
48847;SDS011;36611;51.638;5.784;2022-12-31T16:20:39;5.95;;;2.33;;
48847;SDS011;36611;51.638;5.784;2022-12-31T16:23:21;5.28;;;2.53;;
48847;SDS011;36611;51.638;5.784;2022-12-31T16:25:50;5.05;;;2.70;;
48847;SDS011;36611;51.638;5.784;2022-12-31T16:28:19;6.80;;;2.42;;
48847;SDS011;36611;51.638;5.784;2022-12-31T16:33:30;5.55;;;2.65;;
48847;SDS011;36611;51.638;5.784;2022-12-31T16:35:58;9.88;;;2.83;;
48847;SDS011;36611;51.638;5.784;2022-12-31T16:38:36;7.80;;;2.88;;
48847;SDS011;36611;51.638;5.784;2022-12-31T16:41:21;7.03;;;2.97;;
48847;SDS011;36611;51.638;5.784;2022-12-31T16:43:49;7.88;;;2.90;;
48847;SDS011;36611;51.638;5.784;2022-12-31T16:46:18;6.28;;;3.20;;
48847;SDS011;36611;51.638;5.784;2022-12-31T16:48:52;6.07;;;2.70;;
48847;SDS011;36611;51.638;5.784;2022-12-31T16:51:21;7.15;;;3.17;;
48847;SDS011;36611;51.638;5.784;2022-12-31T16:53:51;5.57;;;2.90;;
48847;SDS011;36611;51.638;5.784;2022-12-31T16:56:22;7.40;;;2.67;;
48847;SDS011;36611;51.638;5.784;2022-12-31T17:01:49;6.38;;;3.00;;
48847;SDS011;36611;51.638;5.784;2022-12-31T17:04:17;7.30;;;2.88;;
48847;SDS011;36611;51.638;5.784;2022-12-31T17:06:46;4.20;;;2.60;;
48847;SDS011;36611;51.638;5.784;2022-12-31T17:09:14;7.85;;;2.78;;
48847;SDS011;36611;51.638;5.784;2022-12-31T17:11:56;5.60;;;2.70;;
48847;SDS011;36611;51.638;5.784;2022-12-31T17:14:33;5.75;;;2.50;;
48847;SDS011;36611;51.638;5.784;2022-12-31T17:17:17;8.52;;;2.70;;
48847;SDS011;36611;51.638;5.784;2022-12-31T17:19:48;4.38;;;2.42;;
48847;SDS011;36611;51.638;5.784;2022-12-31T17:22:30;4.45;;;2.17;;
48847;SDS011;36611;51.638;5.784;2022-12-31T17:27:55;7.65;;;2.83;;
48847;SDS011;36611;51.638;5.784;2022-12-31T17:33:43;5.43;;;2.90;;
48847;SDS011;36611;51.638;5.784;2022-12-31T17:35:48;6.60;;;3.20;;
48847;SDS011;36611;51.638;5.784;2022-12-31T17:43:25;14.50;;;3.33;;
48847;SDS011;36611;51.638;5.784;2022-12-31T17:46:00;5.18;;;2.80;;
48847;SDS011;36611;51.638;5.784;2022-12-31T17:48:27;5.93;;;2.90;;
48847;SDS011;36611;51.638;5.784;2022-12-31T17:50:55;3.85;;;2.38;;
48847;SDS011;36611;51.638;5.784;2022-12-31T17:53:24;6.40;;;2.40;;
48847;SDS011;36611;51.638;5.784;2022-12-31T17:55:51;6.20;;;2.25;;
48847;SDS011;36611;51.638;5.784;2022-12-31T17:58:37;9.52;;;2.85;;
48847;SDS011;36611;51.638;5.784;2022-12-31T18:01:10;8.68;;;2.47;;
48847;SDS011;36611;51.638;5.784;2022-12-31T18:03:40;7.72;;;2.58;;
48847;SDS011;36611;51.638;5.784;2022-12-31T18:06:10;4.43;;;2.40;;
48847;SDS011;36611;51.638;5.784;2022-12-31T18:11:13;7.55;;;2.58;;
48847;SDS011;36611;51.638;5.784;2022-12-31T18:13:42;5.28;;;2.58;;
48847;SDS011;36611;51.638;5.784;2022-12-31T18:16:09;5.90;;;2.50;;
48847;SDS011;36611;51.638;5.784;2022-12-31T18:18:36;4.72;;;2.35;;
48847;SDS011;36611;51.638;5.784;2022-12-31T18:21:06;5.63;;;3.33;;
48847;SDS011;36611;51.638;5.784;2022-12-31T18:26:16;7.88;;;3.05;;
48847;SDS011;36611;51.638;5.784;2022-12-31T18:28:45;8.13;;;3.38;;
48847;SDS011;36611;51.638;5.784;2022-12-31T18:31:13;9.00;;;2.90;;
48847;SDS011;36611;51.638;5.784;2022-12-31T18:33:44;7.57;;;2.90;;
48847;SDS011;36611;51.638;5.784;2022-12-31T18:36:12;7.85;;;3.42;;
48847;SDS011;36611;51.638;5.784;2022-12-31T18:38:40;8.95;;;2.80;;
48847;SDS011;36611;51.638;5.784;2022-12-31T18:41:11;10.88;;;3.03;;
48847;SDS011;36611;51.638;5.784;2022-12-31T18:43:45;5.45;;;3.35;;
48847;SDS011;36611;51.638;5.784;2022-12-31T18:46:12;5.40;;;2.80;;
48847;SDS011;36611;51.638;5.784;2022-12-31T18:48:40;9.30;;;3.47;;
48847;SDS011;36611;51.638;5.784;2022-12-31T18:51:17;7.70;;;2.88;;
48847;SDS011;36611;51.638;5.784;2022-12-31T18:53:49;6.90;;;2.85;;
48847;SDS011;36611;51.638;5.784;2022-12-31T18:56:19;7.50;;;2.72;;
48847;SDS011;36611;51.638;5.784;2022-12-31T18:58:47;8.88;;;2.60;;
48847;SDS011;36611;51.638;5.784;2022-12-31T19:01:24;7.13;;;3.20;;
48847;SDS011;36611;51.638;5.784;2022-12-31T19:03:56;4.00;;;2.53;;
48847;SDS011;36611;51.638;5.784;2022-12-31T19:06:24;9.20;;;3.20;;
48847;SDS011;36611;51.638;5.784;2022-12-31T19:08:52;5.65;;;2.85;;
48847;SDS011;36611;51.638;5.784;2022-12-31T19:11:19;7.95;;;3.33;;
48847;SDS011;36611;51.638;5.784;2022-12-31T19:13:47;10.75;;;3.08;;
48847;SDS011;36611;51.638;5.784;2022-12-31T19:16:14;5.85;;;2.53;;
48847;SDS011;36611;51.638;5.784;2022-12-31T19:18:41;6.18;;;2.72;;
48847;SDS011;36611;51.638;5.784;2022-12-31T19:21:13;6.25;;;3.15;;
48847;SDS011;36611;51.638;5.784;2022-12-31T19:23:42;7.88;;;2.78;;
48847;SDS011;36611;51.638;5.784;2022-12-31T19:26:27;5.88;;;2.88;;
48847;SDS011;36611;51.638;5.784;2022-12-31T19:28:54;7.55;;;3.00;;
48847;SDS011;36611;51.638;5.784;2022-12-31T19:31:21;8.57;;;2.78;;
48847;SDS011;36611;51.638;5.784;2022-12-31T19:33:47;8.30;;;3.55;;
48847;SDS011;36611;51.638;5.784;2022-12-31T19:36:15;9.20;;;2.92;;
48847;SDS011;36611;51.638;5.784;2022-12-31T19:38:43;7.30;;;3.15;;
48847;SDS011;36611;51.638;5.784;2022-12-31T19:41:14;7.03;;;3.00;;
48847;SDS011;36611;51.638;5.784;2022-12-31T19:43:43;7.13;;;2.90;;
48847;SDS011;36611;51.638;5.784;2022-12-31T19:46:10;8.98;;;3.10;;
48847;SDS011;36611;51.638;5.784;2022-12-31T19:48:42;9.35;;;3.25;;
48847;SDS011;36611;51.638;5.784;2022-12-31T19:51:10;11.77;;;4.72;;
48847;SDS011;36611;51.638;5.784;2022-12-31T19:53:41;7.63;;;3.40;;
48847;SDS011;36611;51.638;5.784;2022-12-31T19:56:11;9.57;;;3.00;;
48847;SDS011;36611;51.638;5.784;2022-12-31T19:58:39;9.98;;;3.25;;
48847;SDS011;36611;51.638;5.784;2022-12-31T20:01:05;9.98;;;3.38;;